sensor_id;sensor_type;location;lat;lon;timestamp;P1;durP1;ratioP1;P2;durP2;ratioP2
16516;SDS011;8371;52.272;9.746;2023-04-06T00:00:56;2.23;;;2.13;;
16516;SDS011;8371;52.272;9.746;2023-04-06T00:03:21;2.47;;;2.37;;
16516;SDS011;8371;52.272;9.746;2023-04-06T00:05:47;2.13;;;2.10;;
16516;SDS011;8371;52.272;9.746;2023-04-06T00:08:13;1.97;;;1.87;;
16516;SDS011;8371;52.272;9.746;2023-04-06T00:10:40;2.23;;;2.17;;
16516;SDS011;8371;52.272;9.746;2023-04-06T00:13:06;2.33;;;2.23;;
16516;SDS011;8371;52.272;9.746;2023-04-06T00:15:32;2.60;;;2.50;;
16516;SDS011;8371;52.272;9.746;2023-04-06T00:17:58;2.30;;;2.20;;
16516;SDS011;8371;52.272;9.746;2023-04-06T00:20:23;2.33;;;2.23;;
16516;SDS011;8371;52.272;9.746;2023-04-06T00:22:49;2.47;;;2.37;;
16516;SDS011;8371;52.272;9.746;2023-04-06T00:25:15;2.53;;;2.43;;
16516;SDS011;8371;52.272;9.746;2023-04-06T00:27:41;2.30;;;2.27;;
16516;SDS011;8371;52.272;9.746;2023-04-06T00:30:08;2.50;;;2.40;;
16516;SDS011;8371;52.272;9.746;2023-04-06T00:32:34;2.67;;;2.57;;
16516;SDS011;8371;52.272;9.746;2023-04-06T00:35:02;2.57;;;2.47;;
16516;SDS011;8371;52.272;9.746;2023-04-06T00:37:31;2.20;;;2.10;;
16516;SDS011;8371;52.272;9.746;2023-04-06T00:39:57;2.20;;;2.10;;
16516;SDS011;8371;52.272;9.746;2023-04-06T00:42:23;2.37;;;2.27;;
16516;SDS011;8371;52.272;9.746;2023-04-06T00:44:56;2.33;;;2.23;;
16516;SDS011;8371;52.272;9.746;2023-04-06T00:47:21;2.17;;;2.17;;
16516;SDS011;8371;52.272;9.746;2023-04-06T00:49:48;2.40;;;2.30;;
16516;SDS011;8371;52.272;9.746;2023-04-06T00:52:14;1.97;;;1.90;;
16516;SDS011;8371;52.272;9.746;2023-04-06T00:54:40;1.93;;;1.93;;
16516;SDS011;8371;52.272;9.746;2023-04-06T00:57:06;2.00;;;1.90;;
16516;SDS011;8371;52.272;9.746;2023-04-06T00:59:31;1.80;;;1.80;;
16516;SDS011;8371;52.272;9.746;2023-04-06T01:01:58;1.90;;;1.83;;
16516;SDS011;8371;52.272;9.746;2023-04-06T01:04:23;2.10;;;2.00;;
16516;SDS011;8371;52.272;9.746;2023-04-06T01:06:49;1.87;;;1.87;;
16516;SDS011;8371;52.272;9.746;2023-04-06T01:09:16;2.07;;;1.90;;
16516;SDS011;8371;52.272;9.746;2023-04-06T01:11:42;2.13;;;2.03;;
16516;SDS011;8371;52.272;9.746;2023-04-06T01:14:08;2.50;;;2.40;;
16516;SDS011;8371;52.272;9.746;2023-04-06T01:16:34;1.93;;;1.93;;
16516;SDS011;8371;52.272;9.746;2023-04-06T01:19:00;2.60;;;2.50;;
16516;SDS011;8371;52.272;9.746;2023-04-06T01:21:25;2.07;;;2.07;;
16516;SDS011;8371;52.272;9.746;2023-04-06T01:23:51;1.90;;;1.90;;
16516;SDS011;8371;52.272;9.746;2023-04-06T01:26:17;2.00;;;1.90;;
16516;SDS011;8371;52.272;9.746;2023-04-06T01:28:42;1.90;;;1.87;;
16516;SDS011;8371;52.272;9.746;2023-04-06T01:31:09;1.60;;;1.60;;
16516;SDS011;8371;52.272;9.746;2023-04-06T01:33:35;1.70;;;1.70;;
16516;SDS011;8371;52.272;9.746;2023-04-06T01:36:01;1.77;;;1.77;;
16516;SDS011;8371;52.272;9.746;2023-04-06T01:38:27;2.10;;;1.97;;
16516;SDS011;8371;52.272;9.746;2023-04-06T01:40:53;1.93;;;1.83;;
16516;SDS011;8371;52.272;9.746;2023-04-06T01:43:20;2.40;;;2.30;;
16516;SDS011;8371;52.272;9.746;2023-04-06T01:45:45;1.90;;;1.80;;
16516;SDS011;8371;52.272;9.746;2023-04-06T01:48:11;1.87;;;1.77;;
16516;SDS011;8371;52.272;9.746;2023-04-06T01:50:37;1.50;;;1.50;;
16516;SDS011;8371;52.272;9.746;2023-04-06T01:53:02;1.60;;;1.60;;
16516;SDS011;8371;52.272;9.746;2023-04-06T01:55:28;1.90;;;1.80;;
16516;SDS011;8371;52.272;9.746;2023-04-06T01:57:54;1.53;;;1.53;;
16516;SDS011;8371;52.272;9.746;2023-04-06T02:00:19;1.30;;;1.30;;
16516;SDS011;8371;52.272;9.746;2023-04-06T02:02:45;1.73;;;1.63;;
16516;SDS011;8371;52.272;9.746;2023-04-06T02:05:10;1.50;;;1.50;;
16516;SDS011;8371;52.272;9.746;2023-04-06T02:07:36;1.53;;;1.53;;
16516;SDS011;8371;52.272;9.746;2023-04-06T02:10:02;1.63;;;1.60;;
16516;SDS011;8371;52.272;9.746;2023-04-06T02:12:28;1.53;;;1.53;;
16516;SDS011;8371;52.272;9.746;2023-04-06T02:14:54;1.40;;;1.40;;
16516;SDS011;8371;52.272;9.746;2023-04-06T02:17:20;1.90;;;1.80;;
16516;SDS011;8371;52.272;9.746;2023-04-06T02:19:45;2.10;;;1.90;;
16516;SDS011;8371;52.272;9.746;2023-04-06T02:22:11;1.37;;;1.37;;
16516;SDS011;8371;52.272;9.746;2023-04-06T02:24:37;1.50;;;1.50;;
16516;SDS011;8371;52.272;9.746;2023-04-06T02:27:03;1.90;;;1.80;;
16516;SDS011;8371;52.272;9.746;2023-04-06T02:29:28;1.90;;;1.80;;
16516;SDS011;8371;52.272;9.746;2023-04-06T02:31:54;1.67;;;1.57;;
16516;SDS011;8371;52.272;9.746;2023-04-06T02:34:20;1.20;;;1.20;;
16516;SDS011;8371;52.272;9.746;2023-04-06T02:36:46;1.43;;;1.30;;
16516;SDS011;8371;52.272;9.746;2023-04-06T02:39:12;1.63;;;1.53;;
16516;SDS011;8371;52.272;9.746;2023-04-06T02:41:38;1.37;;;1.37;;
16516;SDS011;8371;52.272;9.746;2023-04-06T02:44:06;1.80;;;1.70;;
16516;SDS011;8371;52.272;9.746;2023-04-06T02:46:33;1.10;;;1.10;;
16516;SDS011;8371;52.272;9.746;2023-04-06T02:48:59;1.10;;;1.10;;
16516;SDS011;8371;52.272;9.746;2023-04-06T02:51:26;1.23;;;1.23;;
16516;SDS011;8371;52.272;9.746;2023-04-06T02:53:52;1.30;;;1.30;;
16516;SDS011;8371;52.272;9.746;2023-04-06T02:56:18;1.40;;;1.40;;
16516;SDS011;8371;52.272;9.746;2023-04-06T02:58:44;1.57;;;1.57;;
16516;SDS011;8371;52.272;9.746;2023-04-06T03:01:10;1.70;;;1.70;;
16516;SDS011;8371;52.272;9.746;2023-04-06T03:03:35;1.60;;;1.60;;
16516;SDS011;8371;52.272;9.746;2023-04-06T03:06:01;1.60;;;1.50;;
16516;SDS011;8371;52.272;9.746;2023-04-06T03:08:26;1.70;;;1.60;;
16516;SDS011;8371;52.272;9.746;2023-04-06T03:10:52;1.60;;;1.60;;
16516;SDS011;8371;52.272;9.746;2023-04-06T03:13:18;1.53;;;1.53;;
16516;SDS011;8371;52.272;9.746;2023-04-06T03:15:43;1.80;;;1.70;;
16516;SDS011;8371;52.272;9.746;2023-04-06T03:18:09;1.57;;;1.57;;
16516;SDS011;8371;52.272;9.746;2023-04-06T03:20:35;1.57;;;1.57;;
16516;SDS011;8371;52.272;9.746;2023-04-06T03:23:01;1.57;;;1.57;;
16516;SDS011;8371;52.272;9.746;2023-04-06T03:25:27;2.40;;;2.30;;
16516;SDS011;8371;52.272;9.746;2023-04-06T03:27:53;1.50;;;1.50;;
16516;SDS011;8371;52.272;9.746;2023-04-06T03:30:19;1.80;;;1.80;;
16516;SDS011;8371;52.272;9.746;2023-04-06T03:32:44;1.87;;;1.77;;
16516;SDS011;8371;52.272;9.746;2023-04-06T03:35:10;1.97;;;1.97;;
16516;SDS011;8371;52.272;9.746;2023-04-06T03:37:36;1.90;;;1.80;;
16516;SDS011;8371;52.272;9.746;2023-04-06T03:40:02;2.00;;;2.00;;
16516;SDS011;8371;52.272;9.746;2023-04-06T03:42:28;1.53;;;1.53;;
16516;SDS011;8371;52.272;9.746;2023-04-06T03:44:53;1.77;;;1.77;;
16516;SDS011;8371;52.272;9.746;2023-04-06T03:47:19;2.07;;;1.97;;
16516;SDS011;8371;52.272;9.746;2023-04-06T03:49:45;2.27;;;2.17;;
16516;SDS011;8371;52.272;9.746;2023-04-06T03:52:10;2.53;;;2.43;;
16516;SDS011;8371;52.272;9.746;2023-04-06T03:54:36;2.33;;;2.23;;
16516;SDS011;8371;52.272;9.746;2023-04-06T03:57:02;2.30;;;2.20;;
16516;SDS011;8371;52.272;9.746;2023-04-06T03:59:29;2.23;;;2.13;;
16516;SDS011;8371;52.272;9.746;2023-04-06T04:01:54;1.97;;;1.97;;
16516;SDS011;8371;52.272;9.746;2023-04-06T04:04:20;1.90;;;1.90;;
16516;SDS011;8371;52.272;9.746;2023-04-06T04:06:46;2.00;;;1.90;;
16516;SDS011;8371;52.272;9.746;2023-04-06T04:09:11;1.67;;;1.67;;
16516;SDS011;8371;52.272;9.746;2023-04-06T04:11:37;1.80;;;1.80;;
16516;SDS011;8371;52.272;9.746;2023-04-06T04:14:03;12.13;;;1.93;;
16516;SDS011;8371;52.272;9.746;2023-04-06T04:16:28;1.97;;;1.90;;
16516;SDS011;8371;52.272;9.746;2023-04-06T04:18:54;1.80;;;1.70;;
16516;SDS011;8371;52.272;9.746;2023-04-06T04:21:20;1.93;;;1.87;;
16516;SDS011;8371;52.272;9.746;2023-04-06T04:23:46;1.90;;;1.80;;
16516;SDS011;8371;52.272;9.746;2023-04-06T04:26:11;2.27;;;2.17;;
16516;SDS011;8371;52.272;9.746;2023-04-06T04:28:37;2.20;;;2.10;;
16516;SDS011;8371;52.272;9.746;2023-04-06T04:31:03;2.60;;;2.03;;
16516;SDS011;8371;52.272;9.746;2023-04-06T04:33:28;1.43;;;1.43;;
16516;SDS011;8371;52.272;9.746;2023-04-06T04:35:54;1.67;;;1.67;;
16516;SDS011;8371;52.272;9.746;2023-04-06T04:38:20;2.10;;;2.03;;
16516;SDS011;8371;52.272;9.746;2023-04-06T04:40:45;1.90;;;1.90;;
16516;SDS011;8371;52.272;9.746;2023-04-06T04:43:11;2.20;;;2.10;;
16516;SDS011;8371;52.272;9.746;2023-04-06T04:45:37;2.13;;;2.03;;
16516;SDS011;8371;52.272;9.746;2023-04-06T04:48:02;2.27;;;2.17;;
16516;SDS011;8371;52.272;9.746;2023-04-06T04:50:30;2.07;;;2.00;;
16516;SDS011;8371;52.272;9.746;2023-04-06T04:52:56;3.40;;;2.13;;
16516;SDS011;8371;52.272;9.746;2023-04-06T04:55:22;2.10;;;2.00;;
16516;SDS011;8371;52.272;9.746;2023-04-06T04:57:47;2.10;;;1.93;;
16516;SDS011;8371;52.272;9.746;2023-04-06T05:00:13;2.30;;;2.20;;
16516;SDS011;8371;52.272;9.746;2023-04-06T05:02:39;2.20;;;2.10;;
16516;SDS011;8371;52.272;9.746;2023-04-06T05:05:05;1.47;;;1.47;;
16516;SDS011;8371;52.272;9.746;2023-04-06T05:07:31;2.07;;;2.03;;
16516;SDS011;8371;52.272;9.746;2023-04-06T05:09:57;2.00;;;1.90;;
16516;SDS011;8371;52.272;9.746;2023-04-06T05:12:23;2.10;;;2.00;;
16516;SDS011;8371;52.272;9.746;2023-04-06T05:14:49;2.13;;;2.03;;
16516;SDS011;8371;52.272;9.746;2023-04-06T05:17:14;2.10;;;2.00;;
16516;SDS011;8371;52.272;9.746;2023-04-06T05:19:40;1.70;;;1.70;;
16516;SDS011;8371;52.272;9.746;2023-04-06T05:22:06;1.70;;;1.70;;
16516;SDS011;8371;52.272;9.746;2023-04-06T05:24:31;1.57;;;1.57;;
16516;SDS011;8371;52.272;9.746;2023-04-06T05:26:57;1.73;;;1.73;;
16516;SDS011;8371;52.272;9.746;2023-04-06T05:29:23;1.87;;;1.87;;
16516;SDS011;8371;52.272;9.746;2023-04-06T05:31:48;2.30;;;1.97;;
16516;SDS011;8371;52.272;9.746;2023-04-06T05:34:16;2.63;;;2.43;;
16516;SDS011;8371;52.272;9.746;2023-04-06T05:36:42;2.10;;;2.00;;
16516;SDS011;8371;52.272;9.746;2023-04-06T05:39:07;2.27;;;2.17;;
16516;SDS011;8371;52.272;9.746;2023-04-06T05:41:33;2.13;;;2.03;;
16516;SDS011;8371;52.272;9.746;2023-04-06T05:43:59;2.50;;;2.40;;
16516;SDS011;8371;52.272;9.746;2023-04-06T05:46:25;2.20;;;2.20;;
16516;SDS011;8371;52.272;9.746;2023-04-06T05:48:51;2.40;;;2.30;;
16516;SDS011;8371;52.272;9.746;2023-04-06T05:51:16;2.37;;;2.27;;
16516;SDS011;8371;52.272;9.746;2023-04-06T05:53:42;2.30;;;2.20;;
16516;SDS011;8371;52.272;9.746;2023-04-06T05:56:08;2.53;;;2.40;;
16516;SDS011;8371;52.272;9.746;2023-04-06T05:58:33;2.20;;;2.10;;
16516;SDS011;8371;52.272;9.746;2023-04-06T06:00:59;2.40;;;2.30;;
16516;SDS011;8371;52.272;9.746;2023-04-06T06:03:26;2.13;;;2.03;;
16516;SDS011;8371;52.272;9.746;2023-04-06T06:05:51;7.73;;;2.20;;
16516;SDS011;8371;52.272;9.746;2023-04-06T06:08:17;2.90;;;2.40;;
16516;SDS011;8371;52.272;9.746;2023-04-06T06:10:43;1.80;;;1.80;;
16516;SDS011;8371;52.272;9.746;2023-04-06T06:13:09;2.17;;;2.07;;
16516;SDS011;8371;52.272;9.746;2023-04-06T06:15:34;1.97;;;1.97;;
16516;SDS011;8371;52.272;9.746;2023-04-06T06:18:00;2.77;;;2.63;;
16516;SDS011;8371;52.272;9.746;2023-04-06T06:20:26;3.47;;;2.47;;
16516;SDS011;8371;52.272;9.746;2023-04-06T06:22:52;2.77;;;2.57;;
16516;SDS011;8371;52.272;9.746;2023-04-06T06:25:18;1.87;;;1.87;;
16516;SDS011;8371;52.272;9.746;2023-04-06T06:27:44;2.60;;;2.50;;
16516;SDS011;8371;52.272;9.746;2023-04-06T06:30:10;2.30;;;2.20;;
16516;SDS011;8371;52.272;9.746;2023-04-06T06:32:35;2.70;;;2.50;;
16516;SDS011;8371;52.272;9.746;2023-04-06T06:35:01;2.47;;;2.37;;
16516;SDS011;8371;52.272;9.746;2023-04-06T06:37:27;2.40;;;2.30;;
16516;SDS011;8371;52.272;9.746;2023-04-06T06:39:53;2.57;;;2.47;;
16516;SDS011;8371;52.272;9.746;2023-04-06T06:42:19;2.40;;;2.30;;
16516;SDS011;8371;52.272;9.746;2023-04-06T06:44:44;2.47;;;2.37;;
16516;SDS011;8371;52.272;9.746;2023-04-06T06:47:10;2.17;;;2.13;;
16516;SDS011;8371;52.272;9.746;2023-04-06T06:49:36;2.73;;;2.63;;
16516;SDS011;8371;52.272;9.746;2023-04-06T06:52:02;2.40;;;2.30;;
16516;SDS011;8371;52.272;9.746;2023-04-06T06:54:27;2.80;;;2.70;;
16516;SDS011;8371;52.272;9.746;2023-04-06T06:56:53;2.30;;;2.20;;
16516;SDS011;8371;52.272;9.746;2023-04-06T06:59:20;2.60;;;2.50;;
16516;SDS011;8371;52.272;9.746;2023-04-06T07:01:45;2.30;;;2.20;;
16516;SDS011;8371;52.272;9.746;2023-04-06T07:04:11;2.30;;;2.13;;
16516;SDS011;8371;52.272;9.746;2023-04-06T07:06:37;2.43;;;2.33;;
16516;SDS011;8371;52.272;9.746;2023-04-06T07:09:02;2.63;;;2.53;;
16516;SDS011;8371;52.272;9.746;2023-04-06T07:11:29;2.20;;;2.10;;
16516;SDS011;8371;52.272;9.746;2023-04-06T07:13:55;2.83;;;2.73;;
16516;SDS011;8371;52.272;9.746;2023-04-06T07:16:21;3.00;;;2.90;;
16516;SDS011;8371;52.272;9.746;2023-04-06T07:18:47;2.27;;;2.23;;
16516;SDS011;8371;52.272;9.746;2023-04-06T07:21:13;2.43;;;2.33;;
16516;SDS011;8371;52.272;9.746;2023-04-06T07:23:39;2.70;;;2.60;;
16516;SDS011;8371;52.272;9.746;2023-04-06T07:26:05;2.27;;;2.27;;
16516;SDS011;8371;52.272;9.746;2023-04-06T07:28:30;2.17;;;2.17;;
16516;SDS011;8371;52.272;9.746;2023-04-06T07:30:56;1.87;;;1.87;;
16516;SDS011;8371;52.272;9.746;2023-04-06T07:33:22;2.60;;;2.50;;
16516;SDS011;8371;52.272;9.746;2023-04-06T07:35:47;2.57;;;2.47;;
16516;SDS011;8371;52.272;9.746;2023-04-06T07:38:13;2.30;;;2.20;;
16516;SDS011;8371;52.272;9.746;2023-04-06T07:40:39;2.83;;;2.73;;
16516;SDS011;8371;52.272;9.746;2023-04-06T07:43:05;2.77;;;2.67;;
16516;SDS011;8371;52.272;9.746;2023-04-06T07:45:30;2.47;;;2.37;;
16516;SDS011;8371;52.272;9.746;2023-04-06T07:47:56;2.70;;;2.60;;
16516;SDS011;8371;52.272;9.746;2023-04-06T07:50:22;2.60;;;2.30;;
16516;SDS011;8371;52.272;9.746;2023-04-06T07:52:48;3.23;;;3.03;;
16516;SDS011;8371;52.272;9.746;2023-04-06T07:55:13;3.00;;;2.90;;
16516;SDS011;8371;52.272;9.746;2023-04-06T07:57:39;3.50;;;3.30;;
16516;SDS011;8371;52.272;9.746;2023-04-06T08:00:05;2.50;;;2.40;;
16516;SDS011;8371;52.272;9.746;2023-04-06T08:02:31;2.67;;;2.57;;
16516;SDS011;8371;52.272;9.746;2023-04-06T08:04:57;3.03;;;2.83;;
16516;SDS011;8371;52.272;9.746;2023-04-06T08:07:23;3.10;;;3.00;;
16516;SDS011;8371;52.272;9.746;2023-04-06T08:09:48;3.00;;;2.90;;
16516;SDS011;8371;52.272;9.746;2023-04-06T08:12:14;2.60;;;2.50;;
16516;SDS011;8371;52.272;9.746;2023-04-06T08:14:40;3.27;;;2.37;;
16516;SDS011;8371;52.272;9.746;2023-04-06T08:17:05;2.43;;;2.33;;
16516;SDS011;8371;52.272;9.746;2023-04-06T08:19:31;2.57;;;2.47;;
16516;SDS011;8371;52.272;9.746;2023-04-06T08:21:57;2.53;;;2.43;;
16516;SDS011;8371;52.272;9.746;2023-04-06T08:24:22;2.30;;;2.20;;
16516;SDS011;8371;52.272;9.746;2023-04-06T08:26:48;2.30;;;2.20;;
16516;SDS011;8371;52.272;9.746;2023-04-06T08:29:14;2.37;;;2.27;;
16516;SDS011;8371;52.272;9.746;2023-04-06T08:31:40;2.63;;;2.53;;
16516;SDS011;8371;52.272;9.746;2023-04-06T08:34:05;2.83;;;2.73;;
16516;SDS011;8371;52.272;9.746;2023-04-06T08:36:32;2.77;;;2.57;;
16516;SDS011;8371;52.272;9.746;2023-04-06T08:38:58;2.57;;;2.47;;
16516;SDS011;8371;52.272;9.746;2023-04-06T08:41:25;2.27;;;2.17;;
16516;SDS011;8371;52.272;9.746;2023-04-06T08:43:54;3.10;;;2.90;;
16516;SDS011;8371;52.272;9.746;2023-04-06T08:46:20;2.97;;;2.77;;
16516;SDS011;8371;52.272;9.746;2023-04-06T08:48:47;2.67;;;2.57;;
16516;SDS011;8371;52.272;9.746;2023-04-06T08:51:15;2.93;;;2.83;;
16516;SDS011;8371;52.272;9.746;2023-04-06T08:53:41;2.33;;;2.23;;
16516;SDS011;8371;52.272;9.746;2023-04-06T08:56:07;2.83;;;2.73;;
16516;SDS011;8371;52.272;9.746;2023-04-06T08:58:35;2.53;;;2.43;;
16516;SDS011;8371;52.272;9.746;2023-04-06T09:01:08;2.93;;;2.80;;
16516;SDS011;8371;52.272;9.746;2023-04-06T09:03:37;2.40;;;2.30;;
16516;SDS011;8371;52.272;9.746;2023-04-06T09:06:05;3.07;;;2.97;;
16516;SDS011;8371;52.272;9.746;2023-04-06T09:08:32;2.40;;;2.30;;
16516;SDS011;8371;52.272;9.746;2023-04-06T09:10:58;2.73;;;2.63;;
16516;SDS011;8371;52.272;9.746;2023-04-06T09:13:26;2.70;;;2.60;;
16516;SDS011;8371;52.272;9.746;2023-04-06T09:16:04;2.47;;;2.37;;
16516;SDS011;8371;52.272;9.746;2023-04-06T09:18:33;2.63;;;2.53;;
16516;SDS011;8371;52.272;9.746;2023-04-06T09:21:03;2.57;;;2.47;;
16516;SDS011;8371;52.272;9.746;2023-04-06T09:23:30;2.70;;;2.60;;
16516;SDS011;8371;52.272;9.746;2023-04-06T09:26:12;2.23;;;2.13;;
16516;SDS011;8371;52.272;9.746;2023-04-06T09:28:55;3.13;;;3.03;;
16516;SDS011;8371;52.272;9.746;2023-04-06T09:31:29;3.10;;;2.90;;
16516;SDS011;8371;52.272;9.746;2023-04-06T09:33:58;3.17;;;3.00;;
16516;SDS011;8371;52.272;9.746;2023-04-06T09:36:35;4.13;;;2.77;;
16516;SDS011;8371;52.272;9.746;2023-04-06T09:39:06;2.87;;;2.77;;
16516;SDS011;8371;52.272;9.746;2023-04-06T09:41:33;2.80;;;2.70;;
16516;SDS011;8371;52.272;9.746;2023-04-06T09:44:07;2.37;;;2.27;;
16516;SDS011;8371;52.272;9.746;2023-04-06T09:46:43;2.87;;;2.77;;
16516;SDS011;8371;52.272;9.746;2023-04-06T09:49:10;3.30;;;2.80;;
16516;SDS011;8371;52.272;9.746;2023-04-06T09:51:44;2.60;;;2.50;;
16516;SDS011;8371;52.272;9.746;2023-04-06T09:54:15;2.57;;;2.37;;
16516;SDS011;8371;52.272;9.746;2023-04-06T09:56:48;2.23;;;2.13;;
16516;SDS011;8371;52.272;9.746;2023-04-06T09:59:35;3.00;;;2.90;;
16516;SDS011;8371;52.272;9.746;2023-04-06T10:02:00;2.60;;;2.50;;
16516;SDS011;8371;52.272;9.746;2023-04-06T10:04:33;2.43;;;2.33;;
16516;SDS011;8371;52.272;9.746;2023-04-06T10:07:10;2.80;;;2.70;;
16516;SDS011;8371;52.272;9.746;2023-04-06T10:09:37;2.10;;;2.10;;
16516;SDS011;8371;52.272;9.746;2023-04-06T10:12:03;2.80;;;2.70;;
16516;SDS011;8371;52.272;9.746;2023-04-06T10:14:31;2.43;;;2.33;;
16516;SDS011;8371;52.272;9.746;2023-04-06T10:17:01;3.67;;;2.70;;
16516;SDS011;8371;52.272;9.746;2023-04-06T10:19:28;3.13;;;3.03;;
16516;SDS011;8371;52.272;9.746;2023-04-06T10:22:03;2.93;;;2.83;;
16516;SDS011;8371;52.272;9.746;2023-04-06T10:24:31;2.83;;;2.73;;
16516;SDS011;8371;52.272;9.746;2023-04-06T10:26:57;3.00;;;2.80;;
16516;SDS011;8371;52.272;9.746;2023-04-06T10:29:25;2.90;;;2.80;;
16516;SDS011;8371;52.272;9.746;2023-04-06T10:31:51;3.30;;;3.20;;
16516;SDS011;8371;52.272;9.746;2023-04-06T10:34:16;3.00;;;2.90;;
16516;SDS011;8371;52.272;9.746;2023-04-06T10:36:42;3.27;;;3.17;;
16516;SDS011;8371;52.272;9.746;2023-04-06T10:39:08;2.70;;;2.60;;
16516;SDS011;8371;52.272;9.746;2023-04-06T10:41:41;2.93;;;2.83;;
16516;SDS011;8371;52.272;9.746;2023-04-06T10:44:08;3.07;;;2.97;;
16516;SDS011;8371;52.272;9.746;2023-04-06T10:46:35;3.10;;;3.00;;
16516;SDS011;8371;52.272;9.746;2023-04-06T10:49:10;3.07;;;2.97;;
16516;SDS011;8371;52.272;9.746;2023-04-06T10:51:38;3.23;;;3.13;;
16516;SDS011;8371;52.272;9.746;2023-04-06T10:54:05;2.63;;;2.53;;
16516;SDS011;8371;52.272;9.746;2023-04-06T10:56:32;3.10;;;2.90;;
16516;SDS011;8371;52.272;9.746;2023-04-06T10:58:59;2.60;;;2.50;;
16516;SDS011;8371;52.272;9.746;2023-04-06T11:01:25;3.00;;;2.80;;
16516;SDS011;8371;52.272;9.746;2023-04-06T11:03:56;2.97;;;2.87;;
16516;SDS011;8371;52.272;9.746;2023-04-06T11:06:27;2.90;;;2.80;;
16516;SDS011;8371;52.272;9.746;2023-04-06T11:08:56;2.77;;;2.67;;
16516;SDS011;8371;52.272;9.746;2023-04-06T11:11:23;3.10;;;3.00;;
16516;SDS011;8371;52.272;9.746;2023-04-06T11:13:52;2.93;;;2.83;;
16516;SDS011;8371;52.272;9.746;2023-04-06T11:16:21;3.27;;;3.17;;
16516;SDS011;8371;52.272;9.746;2023-04-06T11:18:52;2.77;;;2.67;;
16516;SDS011;8371;52.272;9.746;2023-04-06T11:21:30;2.83;;;2.73;;
16516;SDS011;8371;52.272;9.746;2023-04-06T11:26:39;3.37;;;3.27;;
16516;SDS011;8371;52.272;9.746;2023-04-06T11:29:09;3.70;;;3.50;;
16516;SDS011;8371;52.272;9.746;2023-04-06T11:31:46;3.40;;;3.27;;
16516;SDS011;8371;52.272;9.746;2023-04-06T11:34:17;3.07;;;2.97;;
16516;SDS011;8371;52.272;9.746;2023-04-06T11:36:45;3.70;;;3.60;;
16516;SDS011;8371;52.272;9.746;2023-04-06T11:39:18;3.10;;;3.00;;
16516;SDS011;8371;52.272;9.746;2023-04-06T11:41:47;3.27;;;3.17;;
16516;SDS011;8371;52.272;9.746;2023-04-06T11:44:14;3.60;;;3.40;;
16516;SDS011;8371;52.272;9.746;2023-04-06T11:46:40;3.27;;;3.07;;
16516;SDS011;8371;52.272;9.746;2023-04-06T11:49:05;3.20;;;3.07;;
16516;SDS011;8371;52.272;9.746;2023-04-06T11:51:35;4.00;;;3.70;;
16516;SDS011;8371;52.272;9.746;2023-04-06T11:54:01;3.10;;;3.00;;
16516;SDS011;8371;52.272;9.746;2023-04-06T11:56:27;3.13;;;3.03;;
16516;SDS011;8371;52.272;9.746;2023-04-06T11:58:54;3.03;;;2.93;;
16516;SDS011;8371;52.272;9.746;2023-04-06T12:01:21;4.10;;;3.90;;
16516;SDS011;8371;52.272;9.746;2023-04-06T12:03:48;3.23;;;3.13;;
16516;SDS011;8371;52.272;9.746;2023-04-06T12:06:14;3.27;;;3.17;;
16516;SDS011;8371;52.272;9.746;2023-04-06T12:08:40;3.47;;;3.37;;
16516;SDS011;8371;52.272;9.746;2023-04-06T12:11:06;3.10;;;3.00;;
16516;SDS011;8371;52.272;9.746;2023-04-06T12:13:31;3.90;;;3.60;;
16516;SDS011;8371;52.272;9.746;2023-04-06T12:15:57;3.40;;;3.30;;
16516;SDS011;8371;52.272;9.746;2023-04-06T12:18:23;3.60;;;3.50;;
16516;SDS011;8371;52.272;9.746;2023-04-06T12:20:49;3.83;;;3.63;;
16516;SDS011;8371;52.272;9.746;2023-04-06T12:23:14;3.43;;;3.33;;
16516;SDS011;8371;52.272;9.746;2023-04-06T12:25:40;3.40;;;3.30;;
16516;SDS011;8371;52.272;9.746;2023-04-06T12:28:07;3.57;;;3.47;;
16516;SDS011;8371;52.272;9.746;2023-04-06T12:30:33;3.30;;;3.20;;
16516;SDS011;8371;52.272;9.746;2023-04-06T12:33:00;3.20;;;3.10;;
16516;SDS011;8371;52.272;9.746;2023-04-06T12:35:26;3.30;;;3.20;;
16516;SDS011;8371;52.272;9.746;2023-04-06T12:37:52;3.10;;;3.00;;
16516;SDS011;8371;52.272;9.746;2023-04-06T12:40:18;3.80;;;3.60;;
16516;SDS011;8371;52.272;9.746;2023-04-06T12:42:45;3.47;;;3.27;;
16516;SDS011;8371;52.272;9.746;2023-04-06T12:45:11;3.93;;;3.80;;
16516;SDS011;8371;52.272;9.746;2023-04-06T12:47:37;3.33;;;3.23;;
16516;SDS011;8371;52.272;9.746;2023-04-06T12:50:04;3.40;;;3.30;;
16516;SDS011;8371;52.272;9.746;2023-04-06T12:52:31;3.23;;;3.13;;
16516;SDS011;8371;52.272;9.746;2023-04-06T12:54:57;3.27;;;3.17;;
16516;SDS011;8371;52.272;9.746;2023-04-06T12:57:25;3.50;;;3.20;;
16516;SDS011;8371;52.272;9.746;2023-04-06T12:59:51;3.83;;;3.73;;
16516;SDS011;8371;52.272;9.746;2023-04-06T13:02:18;3.37;;;3.17;;
16516;SDS011;8371;52.272;9.746;2023-04-06T13:04:45;3.43;;;3.33;;
16516;SDS011;8371;52.272;9.746;2023-04-06T13:07:11;2.87;;;2.77;;
16516;SDS011;8371;52.272;9.746;2023-04-06T13:09:37;3.47;;;3.27;;
16516;SDS011;8371;52.272;9.746;2023-04-06T13:12:02;3.67;;;3.57;;
16516;SDS011;8371;52.272;9.746;2023-04-06T13:14:28;3.83;;;3.73;;
16516;SDS011;8371;52.272;9.746;2023-04-06T13:16:54;3.17;;;3.07;;
16516;SDS011;8371;52.272;9.746;2023-04-06T13:19:20;3.03;;;2.93;;
16516;SDS011;8371;52.272;9.746;2023-04-06T13:21:45;2.70;;;2.60;;
16516;SDS011;8371;52.272;9.746;2023-04-06T13:24:11;3.23;;;3.13;;
16516;SDS011;8371;52.272;9.746;2023-04-06T13:26:36;3.10;;;3.00;;
16516;SDS011;8371;52.272;9.746;2023-04-06T13:29:02;3.83;;;3.67;;
16516;SDS011;8371;52.272;9.746;2023-04-06T13:31:28;3.67;;;3.57;;
16516;SDS011;8371;52.272;9.746;2023-04-06T13:33:54;3.00;;;2.80;;
16516;SDS011;8371;52.272;9.746;2023-04-06T13:36:20;3.07;;;2.97;;
16516;SDS011;8371;52.272;9.746;2023-04-06T13:38:46;2.80;;;2.70;;
16516;SDS011;8371;52.272;9.746;2023-04-06T13:41:19;3.07;;;2.97;;
16516;SDS011;8371;52.272;9.746;2023-04-06T13:43:43;3.60;;;3.40;;
16516;SDS011;8371;52.272;9.746;2023-04-06T13:46:09;3.00;;;2.90;;
16516;SDS011;8371;52.272;9.746;2023-04-06T13:48:34;3.73;;;3.47;;
16516;SDS011;8371;52.272;9.746;2023-04-06T13:53:38;2.70;;;2.60;;
16516;SDS011;8371;52.272;9.746;2023-04-06T13:56:05;3.10;;;3.00;;
16516;SDS011;8371;52.272;9.746;2023-04-06T13:58:31;3.33;;;3.17;;
16516;SDS011;8371;52.272;9.746;2023-04-06T14:01:04;3.30;;;3.20;;
16516;SDS011;8371;52.272;9.746;2023-04-06T14:03:31;2.87;;;2.77;;
16516;SDS011;8371;52.272;9.746;2023-04-06T14:05:57;2.77;;;2.67;;
16516;SDS011;8371;52.272;9.746;2023-04-06T14:08:22;3.47;;;3.27;;
16516;SDS011;8371;52.272;9.746;2023-04-06T14:10:48;3.03;;;2.93;;
16516;SDS011;8371;52.272;9.746;2023-04-06T14:13:14;3.67;;;2.90;;
16516;SDS011;8371;52.272;9.746;2023-04-06T14:15:40;2.97;;;2.87;;
16516;SDS011;8371;52.272;9.746;2023-04-06T14:18:07;3.60;;;3.50;;
16516;SDS011;8371;52.272;9.746;2023-04-06T14:20:33;3.80;;;3.60;;
16516;SDS011;8371;52.272;9.746;2023-04-06T14:22:59;3.47;;;3.37;;
16516;SDS011;8371;52.272;9.746;2023-04-06T14:25:27;2.80;;;2.70;;
16516;SDS011;8371;52.272;9.746;2023-04-06T14:27:53;3.53;;;3.43;;
16516;SDS011;8371;52.272;9.746;2023-04-06T14:30:19;3.30;;;3.20;;
16516;SDS011;8371;52.272;9.746;2023-04-06T14:32:45;2.90;;;2.80;;
16516;SDS011;8371;52.272;9.746;2023-04-06T14:35:10;3.00;;;2.90;;
16516;SDS011;8371;52.272;9.746;2023-04-06T14:37:36;2.73;;;2.63;;
16516;SDS011;8371;52.272;9.746;2023-04-06T14:40:02;3.53;;;3.43;;
16516;SDS011;8371;52.272;9.746;2023-04-06T14:42:28;3.30;;;3.20;;
16516;SDS011;8371;52.272;9.746;2023-04-06T14:44:54;2.80;;;2.70;;
16516;SDS011;8371;52.272;9.746;2023-04-06T14:47:20;2.70;;;2.60;;
16516;SDS011;8371;52.272;9.746;2023-04-06T14:49:50;2.93;;;2.83;;
16516;SDS011;8371;52.272;9.746;2023-04-06T14:52:16;3.33;;;3.17;;
16516;SDS011;8371;52.272;9.746;2023-04-06T14:54:42;3.50;;;3.40;;
16516;SDS011;8371;52.272;9.746;2023-04-06T14:57:08;3.40;;;3.30;;
16516;SDS011;8371;52.272;9.746;2023-04-06T14:59:34;3.30;;;3.20;;
16516;SDS011;8371;52.272;9.746;2023-04-06T15:02:01;3.47;;;3.27;;